Time;durP1;ratioP1;P1;durP2;ratioP2;P2;SDS_P1;SDS_P2;PMS_P1;PMS_P2;Temp;Humidity;BMP_temperature;BMP_pressure;BME280_temperature;BME280_humidity;BME280_pressure;Samples;Min_cycle;Max_cycle;Signal;HPM_P1;HPM_P2
2023/01/10 00:01:06;;;;;;;56.65;5.60;;;;;;;7.42;100.00;97421.16;4959552;28;20034;-55
2023/01/10 00:03:32;;;;;;;53.50;5.22;;;;;;;8.39;100.00;97416.66;4961093;28;20046;-55
2023/01/10 00:05:57;;;;;;;48.80;5.65;;;;;;;7.88;100.00;97419.41;4960850;28;20051;-58
2023/01/10 00:08:22;;;;;;;49.35;4.95;;;;;;;7.79;100.00;97423.72;4960832;28;20096;-59
2023/01/10 00:10:48;;;;;;;68.45;6.68;;;;;;;7.90;100.00;97434.06;4959555;28;20082;-58
2023/01/10 00:13:22;;;;;;;43.85;5.10;;;;;;;7.90;100.00;97428.88;4960632;28;20569;-59
2023/01/10 00:15:48;;;;;;;54.58;5.82;;;;;;;7.79;100.00;97438.38;4960963;28;20618;-57
2023/01/10 00:18:13;;;;;;;48.95;5.35;;;;;;;8.10;100.00;97440.94;4960420;28;20038;-58
2023/01/10 00:20:39;;;;;;;53.20;5.68;;;;;;;8.31;100.00;97433.97;4959847;28;20039;-57
2023/01/10 00:23:04;;;;;;;58.80;6.00;;;;;;;8.29;100.00;97434.00;4960160;28;20132;-56
2023/01/10 00:25:32;;;;;;;55.78;6.00;;;;;;;8.71;100.00;97435.56;4960132;28;20066;-54
2023/01/10 00:28:09;;;;;;;65.32;6.93;;;;;;;7.94;100.00;97447.84;4960581;28;20018;-56
2023/01/10 00:30:39;;;;;;;41.92;4.95;;;;;;;7.73;100.00;97446.16;4960268;28;20038;-57
2023/01/10 00:33:06;;;;;;;62.65;6.20;;;;;;;7.66;100.00;97451.34;4959787;28;20732;-56
2023/01/10 00:35:32;;;;;;;57.97;6.07;;;;;;;8.05;100.00;97453.88;4959739;28;20149;-55
2023/01/10 00:38:06;;;;;;;57.88;6.20;;;;;;;7.57;100.00;97464.28;4961128;28;20057;-54
2023/01/10 00:40:32;;;;;;;52.88;5.32;;;;;;;8.33;100.00;97459.03;4959460;28;20167;-55
2023/01/10 00:45:45;;;;;;;42.80;5.20;;;;;;;7.25;100.00;97473.75;4964980;28;20045;-56
2023/01/10 00:48:14;;;;;;;64.97;6.60;;;;;;;7.06;100.00;97472.84;4960473;28;20022;-55
2023/01/10 00:50:40;;;;;;;48.95;5.45;;;;;;;6.75;100.00;97472.75;4959063;28;20039;-55
2023/01/10 00:53:06;;;;;;;66.45;6.15;;;;;;;6.98;100.00;97478.00;4959937;28;20758;-56
2023/01/10 00:55:33;;;;;;;48.55;5.93;;;;;;;6.86;100.00;97484.00;4959571;28;20049;-58
2023/01/10 00:57:59;;;;;;;48.78;5.68;;;;;;;6.99;100.00;97481.44;4960194;28;20031;-56
2023/01/10 01:00:24;;;;;;;59.38;6.35;;;;;;;6.83;100.00;97489.16;4958767;28;20022;-55
2023/01/10 01:02:50;;;;;;;50.65;5.70;;;;;;;6.93;100.00;97484.00;4960163;28;20030;-55
2023/01/10 01:05:16;;;;;;;55.35;6.10;;;;;;;6.93;100.00;97500.38;4959870;28;20069;-55
2023/01/10 01:07:41;;;;;;;46.72;5.43;;;;;;;7.24;100.00;97499.63;4960075;28;20117;-57
2023/01/10 01:10:26;;;;;;;49.92;5.32;;;;;;;7.46;100.00;97500.50;4958810;28;20035;-57
2023/01/10 01:12:53;;;;;;;50.38;5.68;;;;;;;7.57;100.00;97510.84;4959496;28;20041;-57
2023/01/10 01:15:18;;;;;;;51.15;5.85;;;;;;;7.47;100.00;97506.53;4959305;28;20106;-55
2023/01/10 01:17:43;;;;;;;50.88;6.03;;;;;;;7.49;100.00;97520.34;4959974;28;20756;-55
2023/01/10 01:20:09;;;;;;;45.92;5.80;;;;;;;7.39;100.00;97522.06;4959053;28;20057;-55
2023/01/10 01:22:35;;;;;;;61.70;6.55;;;;;;;7.97;100.00;97529.88;4959298;28;20068;-58
2023/01/10 01:25:00;;;;;;;37.38;5.45;;;;;;;7.35;100.00;97531.53;4960375;28;20073;-56
2023/01/10 01:27:26;;;;;;;44.90;5.47;;;;;;;7.73;100.00;97540.22;4958985;28;20045;-58
2023/01/10 01:29:51;;;;;;;91.90;8.20;;;;;;;7.91;100.00;97543.69;4958395;28;20038;-58
2023/01/10 01:32:17;;;;;;;51.45;6.38;;;;;;;7.05;100.00;97542.66;4959628;28;20066;-55
2023/01/10 01:34:43;;;;;;;58.80;7.10;;;;;;;7.22;100.00;97546.16;4959351;28;20111;-55
2023/01/10 01:37:08;;;;;;;51.88;5.88;;;;;;;7.65;100.00;97547.13;4959473;28;20094;-55
2023/01/10 01:39:34;;;;;;;50.55;6.32;;;;;;;8.03;100.00;97554.06;4956828;28;20546;-55
2023/01/10 01:41:59;;;;;;;58.80;7.55;;;;;;;7.68;100.00;97554.88;4958270;28;20054;-58
2023/01/10 01:44:38;;;;;;;48.00;6.03;;;;;;;7.73;100.00;97557.47;4959247;28;20038;-55
2023/01/10 01:47:13;;;;;;;50.45;5.90;;;;;;;7.73;100.00;97557.47;4958239;28;20046;-55
2023/01/10 01:49:42;;;;;;;67.00;7.95;;;;;;;8.19;100.00;97565.25;4958910;28;20031;-58
2023/01/10 01:52:17;;;;;;;54.60;6.65;;;;;;;8.85;100.00;97557.38;4958207;28;20049;-55
2023/01/10 01:54:43;;;;;;;48.15;6.35;;;;;;;8.82;100.00;97565.16;4959043;28;20093;-58
2023/01/10 01:57:16;;;;;;;54.88;7.53;;;;;;;8.56;100.00;97564.38;4958715;28;20031;-57
2023/01/10 01:59:45;;;;;;;81.43;8.43;;;;;;;7.97;100.00;97566.13;4958686;28;20023;-56
2023/01/10 02:02:17;;;;;;;63.50;7.43;;;;;;;8.31;100.00;97561.78;4958772;28;20069;-55
2023/01/10 02:04:45;;;;;;;;;;;;;;;7.92;100.00;97579.06;4959400;28;20026;-56
2023/01/10 02:07:12;;;;;;;67.15;7.68;;;;;;;7.99;100.00;97580.81;4958658;28;19964;-56
2023/01/10 02:09:46;;;;;;;62.10;7.00;;;;;;;8.37;100.00;97591.16;4958653;28;20030;-55
2023/01/10 02:12:14;;;;;;;67.60;6.97;;;;;;;8.39;100.00;97582.50;4958041;28;20047;-58
2023/01/10 02:14:41;;;;;;;47.55;6.03;;;;;;;8.03;100.00;97581.66;4958585;28;20031;-58
2023/01/10 02:17:11;;;;;;;51.40;5.43;;;;;;;8.11;100.00;97582.53;4949978;28;20031;-54
2023/01/10 02:19:54;;;;;;;59.53;7.20;;;;;;;7.80;100.00;97582.53;4958306;28;20033;-55
2023/01/10 02:22:54;;;;;;;59.78;6.68;;;;;;;8.02;100.00;97588.56;4958126;28;20048;-55
2023/01/10 02:25:28;;;;;;;64.43;7.55;;;;;;;7.47;100.00;97594.53;4958405;28;20031;-56
2023/01/10 02:28:15;;;;;;;40.03;5.00;;;;;;;8.46;100.00;97601.50;4962380;28;20030;-56
2023/01/10 02:30:55;;;;;;;48.22;6.50;;;;;;;8.15;100.00;97596.34;4961916;28;20038;-56
2023/01/10 02:33:28;;;;;;;65.82;7.50;;;;;;;8.31;100.00;97605.84;4962532;28;20034;-54
2023/01/10 02:36:12;;;;;;;53.10;5.97;;;;;;;8.24;100.00;97613.63;4962297;28;20493;-54
2023/01/10 02:38:38;;;;;;;72.10;7.57;;;;;;;8.47;100.00;97609.28;4962675;28;20042;-55
2023/01/10 02:41:09;;;;;;;63.40;7.40;;;;;;;8.62;100.00;97620.53;4962195;28;20043;-55
2023/01/10 02:43:44;;;;;;;69.35;7.53;;;;;;;7.90;100.00;97620.50;4962818;28;20030;-53
2023/01/10 02:46:16;;;;;;;56.50;7.47;;;;;;;8.20;100.00;97623.97;4962007;28;20448;-54
2023/01/10 02:48:41;;;;;;;63.65;7.57;;;;;;;7.91;100.00;97627.41;4962451;28;20392;-55
2023/01/10 02:51:19;;;;;;;71.95;8.75;;;;;;;8.80;100.00;97636.94;4961051;28;20504;-55
2023/01/10 02:53:50;;;;;;;66.30;8.35;;;;;;;8.47;100.00;97642.97;4962543;28;20133;-54
2023/01/10 02:56:44;;;;;;;53.28;6.32;;;;;;;7.80;100.00;97639.47;4961573;28;20034;-54
2023/01/10 02:59:32;;;;;;;53.25;6.53;;;;;;;8.89;100.00;97651.59;4907750;28;20039;-55
2023/01/10 03:02:17;;;;;;;54.42;6.47;;;;;;;8.36;100.00;97649.91;4938347;28;20085;-56
2023/01/10 03:05:21;;;;;;;66.20;8.02;;;;;;;8.11;100.00;97657.66;4961729;28;20064;-57
2023/01/10 03:08:06;;;;;;;65.85;7.43;;;;;;;8.17;100.00;97657.66;4961763;28;20122;-55
2023/01/10 03:10:53;;;;;;;53.45;6.50;;;;;;;8.46;100.00;97668.88;4960548;28;21267;-55
2023/01/10 03:13:33;;;;;;;51.88;6.10;;;;;;;8.47;100.00;97670.63;4961554;28;20034;-55
2023/01/10 03:16:01;;;;;;;52.47;7.22;;;;;;;8.14;100.00;97675.81;4960930;28;20727;-55
2023/01/10 03:18:41;;;;;;;51.90;6.53;;;;;;;8.64;100.00;97670.66;4962132;28;20750;-54
2023/01/10 03:21:08;;;;;;;79.25;8.77;;;;;;;8.51;100.00;97674.97;4959687;28;20172;-55
2023/01/10 03:23:35;;;;;;;47.47;6.32;;;;;;;8.39;100.00;97675.78;4962009;28;20033;-55
2023/01/10 03:26:01;;;;;;;57.30;7.05;;;;;;;8.24;100.00;97684.41;4961257;28;20035;-55
2023/01/10 03:28:37;;;;;;;44.25;6.30;;;;;;;7.56;100.00;97695.47;4962301;28;20043;-55
2023/01/10 03:31:08;;;;;;;73.68;7.15;;;;;;;8.87;100.00;97703.47;4959768;28;20053;-54
2023/01/10 03:33:34;;;;;;;49.70;6.97;;;;;;;7.97;100.00;97711.16;4961890;28;20066;-55
2023/01/10 03:36:00;;;;;;;42.47;6.00;;;;;;;7.73;100.00;97720.56;4961492;28;20134;-54
2023/01/10 03:38:34;;;;;;;50.33;6.90;;;;;;;7.92;100.00;97718.91;4961137;28;20554;-54
2023/01/10 03:41:11;;;;;;;58.25;7.75;;;;;;;7.54;100.00;97731.69;4960228;28;20441;-54
2023/01/10 03:46:52;;;;;;;47.70;6.00;;;;;;;8.24;100.00;97744.00;4961188;28;20046;-54
2023/01/10 03:49:21;;;;;;;62.20;7.28;;;;;;;8.11;100.00;97743.13;4960959;28;20361;-56
2023/01/10 03:51:48;;;;;;;52.83;6.90;;;;;;;8.18;100.00;97747.47;4959932;28;20456;-54
2023/01/10 03:54:15;;;;;;;49.38;7.18;;;;;;;8.61;100.00;97752.75;4961864;28;20739;-55
2023/01/10 03:56:49;;;;;;;46.13;6.47;;;;;;;8.08;100.00;97758.66;4961009;28;20432;-54
2023/01/10 03:59:26;;;;;;;56.47;7.03;;;;;;;7.82;100.00;97759.44;4961694;28;20027;-54
2023/01/10 04:01:53;;;;;;;52.17;7.22;;;;;;;8.87;100.00;97755.34;4959453;28;20527;-54
2023/01/10 04:04:18;;;;;;;45.05;7.05;;;;;;;8.32;100.00;97759.59;4960627;28;20066;-57
2023/01/10 04:06:43;;;;;;;37.75;5.75;;;;;;;8.00;100.00;97768.13;4960007;28;20126;-54
2023/01/10 04:09:09;;;;;;;49.75;7.03;;;;;;;8.14;100.00;97768.19;4960786;28;20448;-55
2023/01/10 04:11:35;;;;;;;61.03;7.70;;;;;;;8.13;100.00;97772.47;4958345;28;20112;-54
2023/01/10 04:14:00;;;;;;;49.13;6.80;;;;;;;8.42;100.00;97778.59;4960852;28;20118;-54
2023/01/10 04:16:25;;;;;;;44.72;6.57;;;;;;;8.42;100.00;97774.28;4960049;28;20038;-54
2023/01/10 04:18:51;;;;;;;44.72;6.20;;;;;;;7.82;100.00;97783.63;4960454;28;20031;-54
2023/01/10 04:21:16;;;;;;;56.47;7.07;;;;;;;8.15;100.00;97786.31;4958628;28;20034;-57
2023/01/10 04:23:41;;;;;;;54.63;7.80;;;;;;;7.88;100.00;97785.38;4960311;28;20030;-56
2023/01/10 04:26:07;;;;;;;48.63;7.40;;;;;;;8.20;100.00;97800.16;4959662;28;20038;-56
2023/01/10 04:28:32;;;;;;;45.28;6.97;;;;;;;8.79;100.00;97801.16;4960011;28;20038;-54
2023/01/10 04:30:58;;;;;;;64.30;8.20;;;;;;;8.52;100.00;97803.69;4958260;28;20603;-54
2023/01/10 04:33:23;;;;;;;50.38;7.28;;;;;;;9.24;100.00;97811.53;4960096;28;20126;-54
2023/01/10 04:35:50;;;;;;;70.35;9.07;;;;;;;9.95;100.00;97815.69;4959405;28;20066;-53
2023/01/10 04:38:16;;;;;;;53.38;7.20;;;;;;;9.30;100.00;97815.84;4960240;28;20109;-54
2023/01/10 04:40:42;;;;;;;59.38;8.15;;;;;;;9.61;100.00;97824.44;4958560;28;20129;-55
2023/01/10 04:43:08;;;;;;;62.47;8.48;;;;;;;8.76;100.00;97824.50;4959322;28;20034;-57
2023/01/10 04:45:33;;;;;;;45.60;7.57;;;;;;;8.29;100.00;97829.53;4959261;28;20559;-54
2023/01/10 04:47:59;;;;;;;60.63;8.98;;;;;;;8.08;100.00;97831.19;4959555;28;20030;-55
2023/01/10 04:50:25;;;;;;;40.00;7.10;;;;;;;8.18;100.00;97845.94;4957892;28;20677;-55
2023/01/10 04:52:50;;;;;;;50.20;7.85;;;;;;;7.74;100.00;97855.19;4959522;28;20037;-55
2023/01/10 04:55:16;;;;;;;60.33;8.15;;;;;;;7.56;100.00;97853.34;4958520;28;20022;-57
2023/01/10 04:57:41;;;;;;;59.33;8.13;;;;;;;7.68;100.00;97853.44;4960431;28;20022;-54
2023/01/10 05:00:08;;;;;;;54.70;7.53;;;;;;;7.88;100.00;97868.25;4958943;28;20027;-54
2023/01/10 05:02:33;;;;;;;48.40;7.32;;;;;;;8.15;100.00;97860.56;4916635;28;1245242;-55
2023/01/10 05:04:58;;;;;;;61.35;8.30;;;;;;;8.45;100.00;97866.72;4959188;28;20113;-55
2023/01/10 05:07:24;;;;;;;55.60;6.55;;;;;;;7.89;100.00;97871.66;4958687;28;20105;-55
2023/01/10 05:09:49;;;;;;;77.93;8.48;;;;;;;7.63;100.00;97885.31;4959679;28;20114;-54
2023/01/10 05:12:14;;;;;;;53.53;7.47;;;;;;;8.03;100.00;97888.16;4959355;28;20134;-55
2023/01/10 05:14:40;;;;;;;55.80;7.72;;;;;;;7.95;100.00;97888.09;4960416;28;20400;-54
2023/01/10 05:17:05;;;;;;;44.25;7.25;;;;;;;8.36;100.00;97890.91;4958223;28;20413;-57
2023/01/10 05:19:31;;;;;;;58.00;8.48;;;;;;;8.47;100.00;97904.75;4959866;28;20033;-57
2023/01/10 05:21:56;;;;;;;38.65;5.00;;;;;;;9.21;100.00;97898.03;4958739;28;20050;-56
2023/01/10 05:24:22;;;;;;;69.93;9.15;;;;;;;8.75;100.00;97916.13;4959504;28;20062;-55
2023/01/10 05:26:47;;;;;;;46.00;7.10;;;;;;;8.11;100.00;97919.28;4958452;28;20039;-55
2023/01/10 05:29:15;;;;;;;44.85;6.47;;;;;;;8.24;100.00;97915.03;4959776;28;20038;-54
2023/01/10 05:31:41;;;;;;;56.38;7.50;;;;;;;8.02;100.00;97933.03;4958313;28;20047;-56
2023/01/10 05:34:10;;;;;;;59.33;8.10;;;;;;;8.18;100.00;97923.66;4960026;28;20674;-55
2023/01/10 05:36:36;;;;;;;76.47;10.48;;;;;;;9.07;100.00;97938.66;4959455;28;20039;-58
2023/01/10 05:39:02;;;;;;;50.38;6.55;;;;;;;9.74;100.00;97943.91;4959978;28;20392;-56
2023/01/10 05:41:27;;;;;;;61.90;7.15;;;;;;;9.26;100.00;97942.16;4958809;28;20105;-55
2023/01/10 05:43:53;;;;;;;56.60;9.35;;;;;;;9.16;100.00;97948.22;4959819;28;20030;-55
2023/01/10 05:46:18;;;;;;;63.88;9.63;;;;;;;8.73;100.00;97950.69;4959697;28;20065;-59
2023/01/10 05:48:43;;;;;;;139.27;21.77;;;;;;;14.10;100.00;97952.09;4959490;28;20126;-56
2023/01/10 05:51:09;;;;;;;109.50;16.77;;;;;;;14.96;100.00;97953.06;4957866;28;20047;-57
2023/01/10 05:53:34;;;;;;;88.80;13.88;;;;;;;15.23;100.00;97966.44;4959596;28;20027;-56
2023/01/10 05:56:01;;;;;;;94.63;14.05;;;;;;;14.90;100.00;97961.03;4958945;28;20105;-56
2023/01/10 05:58:28;;;;;;;60.92;10.32;;;;;;;14.80;100.00;97968.22;4959789;28;20042;-59
2023/01/10 06:00:55;;;;;;;61.65;10.75;;;;;;;14.55;100.00;97982.63;4958261;28;20068;-55
2023/01/10 06:03:21;;;;;;;59.33;10.57;;;;;;;15.24;100.00;97986.50;4959375;28;20035;-56
2023/01/10 06:05:46;;;;;;;59.00;10.30;;;;;;;14.76;100.00;97992.72;4958916;28;20069;-57
2023/01/10 06:08:12;;;;;;;52.53;9.10;;;;;;;10.22;100.00;98000.13;4959400;28;20023;-56
2023/01/10 06:10:37;;;;;;;52.70;8.77;;;;;;;8.36;100.00;98012.72;4958202;28;20612;-57
2023/01/10 06:13:04;;;;;;;56.00;8.38;;;;;;;6.46;100.00;98021.22;4958105;28;20939;-55
2023/01/10 06:15:29;;;;;;;44.50;6.43;;;;;;;5.81;100.00;98032.28;4957968;28;20066;-57
2023/01/10 06:17:54;;;;;;;57.70;8.27;;;;;;;5.53;100.00;98038.69;4957692;28;20042;-55
2023/01/10 06:20:20;;;;;;;54.92;7.82;;;;;;;5.22;100.00;98033.84;4957789;28;20037;-55
2023/01/10 06:22:45;;;;;;;56.20;6.70;;;;;;;5.12;100.00;98043.09;4958623;28;20026;-56
2023/01/10 06:25:12;;;;;;;69.45;7.25;;;;;;;4.99;100.00;98044.59;4958362;28;20963;-55
2023/01/10 06:27:41;;;;;;;55.97;8.02;;;;;;;4.86;100.00;98045.19;4957442;28;20155;-56
2023/01/10 06:30:08;;;;;;;69.25;8.07;;;;;;;4.80;100.00;98049.34;4958165;28;20311;-56
2023/01/10 06:32:35;;;;;;;56.20;8.27;;;;;;;4.82;100.00;98063.16;4958496;28;20077;-55
2023/01/10 06:35:00;;;;;;;54.72;8.05;;;;;;;4.67;100.00;98063.69;4959323;28;20153;-58
2023/01/10 06:37:26;;;;;;;60.25;7.88;;;;;;;4.65;100.00;98060.22;4958504;28;20121;-60
2023/01/10 06:39:51;;;;;;;91.28;9.98;;;;;;;4.60;100.00;98074.69;4958960;28;20142;-58
2023/01/10 06:42:16;;;;;;;75.07;8.25;;;;;;;4.58;100.00;98084.09;4958154;28;20149;-57
2023/01/10 06:44:42;;;;;;;70.85;8.35;;;;;;;4.63;100.00;98097.94;4959228;28;20031;-56
2023/01/10 06:47:07;;;;;;;66.10;8.43;;;;;;;4.61;100.00;98106.47;4958430;28;20037;-56
2023/01/10 06:49:32;;;;;;;73.60;8.30;;;;;;;4.62;100.00;98111.69;4958866;28;20027;-55
2023/01/10 06:51:58;;;;;;;55.70;7.88;;;;;;;4.61;100.00;98114.22;4957578;28;20053;-56
2023/01/10 06:54:23;;;;;;;72.20;8.70;;;;;;;4.58;100.00;98122.75;4959256;28;20026;-58
2023/01/10 06:56:49;;;;;;;59.70;8.25;;;;;;;4.60;100.00;98133.94;4958664;28;20818;-57
2023/01/10 06:59:14;;;;;;;61.92;8.48;;;;;;;4.65;100.00;98137.53;4957778;28;20366;-55
2023/01/10 07:01:40;;;;;;;72.82;8.85;;;;;;;4.64;100.00;98145.22;4957266;28;20054;-58
2023/01/10 07:04:05;;;;;;;64.45;7.25;;;;;;;4.66;100.00;98141.81;4958112;28;20045;-55
2023/01/10 07:06:31;;;;;;;70.72;9.60;;;;;;;4.65;100.00;98142.66;4958397;28;20042;-55
2023/01/10 07:08:56;;;;;;;56.67;7.03;;;;;;;4.65;100.00;98152.09;4958703;28;20026;-57
2023/01/10 07:11:22;;;;;;;55.45;7.00;;;;;;;4.65;100.00;98160.72;4957030;28;20046;-56
2023/01/10 07:13:47;;;;;;;74.38;9.18;;;;;;;4.72;100.00;98169.44;4960868;28;20485;-57
2023/01/10 07:16:15;;;;;;;64.50;8.02;;;;;;;4.73;100.00;98176.34;4961870;28;20035;-55
2023/01/10 07:18:41;;;;;;;70.70;8.45;;;;;;;4.72;100.00;98192.63;4961769;28;20037;-58
2023/01/10 07:21:08;;;;;;;60.95;7.38;;;;;;;4.72;100.00;98195.22;4960850;28;20149;-55
2023/01/10 07:23:34;;;;;;;68.10;7.75;;;;;;;4.78;100.00;98203.06;4962841;28;20046;-56
2023/01/10 07:26:05;;;;;;;64.20;7.57;;;;;;;4.75;100.00;98195.25;4961693;28;20074;-55
2023/01/10 07:28:33;;;;;;;52.28;6.80;;;;;;;4.76;100.00;98209.91;4962301;28;20046;-55
2023/01/10 07:30:59;;;;;;;85.40;9.13;;;;;;;4.76;100.00;98201.31;4960357;28;20039;-57
2023/01/10 07:33:25;;;;;;;57.38;6.68;;;;;;;4.72;100.00;98208.09;4961948;28;20218;-57
2023/01/10 07:35:50;;;;;;;54.13;5.97;;;;;;;4.74;100.00;98209.00;4960430;28;20295;-57
2023/01/10 07:38:16;;;;;;;56.97;7.07;;;;;;;4.79;100.00;98216.84;4961726;28;20674;-55
2023/01/10 07:40:41;;;;;;;68.60;7.57;;;;;;;4.96;100.00;98224.94;4959283;28;20050;-56
2023/01/10 07:43:06;;;;;;;58.85;7.15;;;;;;;4.87;100.00;98235.94;4961594;28;20098;-56
2023/01/10 07:45:32;;;;;;;62.83;7.68;;;;;;;4.82;100.00;98238.41;4961477;28;20158;-56
2023/01/10 07:47:59;;;;;;;53.75;7.25;;;;;;;4.84;100.00;98247.88;4961714;28;20461;-56
2023/01/10 07:50:26;;;;;;;55.70;6.55;;;;;;;4.85;100.00;98257.31;4960092;28;20022;-54
2023/01/10 07:52:51;;;;;;;62.20;6.90;;;;;;;4.90;100.00;98258.34;4962089;28;20054;-58
2023/01/10 07:55:17;;;;;;;74.40;7.82;;;;;;;4.88;100.00;98257.41;4961501;28;20113;-55
2023/01/10 07:57:42;;;;;;;54.55;7.32;;;;;;;4.93;100.00;98261.84;4960987;28;20047;-55
2023/01/10 08:00:09;;;;;;;67.13;7.63;;;;;;;4.94;100.00;98268.75;4960330;28;20031;-57
2023/01/10 08:02:34;;;;;;;56.80;6.88;;;;;;;4.91;100.00;98262.66;4960788;28;20582;-55
2023/01/10 08:04:59;;;;;;;51.92;4.90;;;;;;;4.83;100.00;98265.06;4961698;28;20045;-57
2023/01/10 08:07:25;;;;;;;67.40;7.22;;;;;;;4.84;100.00;98276.22;4960753;28;20153;-55
2023/01/10 08:09:50;;;;;;;86.57;7.80;;;;;;;4.82;100.00;98279.63;4960464;28;20105;-58
2023/01/10 08:12:15;;;;;;;47.33;5.93;;;;;;;4.86;100.00;98279.72;4960237;28;20199;-55
2023/01/10 08:14:41;;;;;;;68.07;7.57;;;;;;;4.82;100.00;98284.78;4960531;28;20355;-58
2023/01/10 08:17:06;;;;;;;54.50;6.88;;;;;;;4.87;100.00;98281.44;4960899;28;20042;-55
2023/01/10 08:19:31;;;;;;;75.53;7.72;;;;;;;4.85;100.00;98290.84;4961345;28;20054;-57
2023/01/10 08:21:57;;;;;;;55.33;6.43;;;;;;;4.87;100.00;98302.06;4959898;28;20043;-55
2023/01/10 08:24:22;;;;;;;59.58;6.82;;;;;;;4.81;100.00;98295.94;4959874;28;20645;-58
2023/01/10 08:26:48;;;;;;;62.20;7.30;;;;;;;4.84;100.00;98294.25;4960190;28;20043;-55
2023/01/10 08:29:14;;;;;;;58.42;6.57;;;;;;;4.88;100.00;98294.38;4961432;28;20039;-58
2023/01/10 08:31:40;;;;;;;73.03;8.35;;;;;;;4.98;100.00;98295.47;4959174;28;20043;-57
2023/01/10 08:34:05;;;;;;;63.53;7.03;;;;;;;5.01;100.00;98300.69;4961265;28;20038;-57
2023/01/10 08:36:31;;;;;;;74.82;7.53;;;;;;;5.05;100.00;98302.50;4960264;28;20045;-57
2023/01/10 08:38:56;;;;;;;67.57;8.00;;;;;;;5.07;100.00;98306.00;4960852;28;20030;-58
2023/01/10 08:41:21;;;;;;;45.50;5.97;;;;;;;5.16;100.00;98307.06;4959303;28;20038;-56
2023/01/10 08:43:51;;;;;;;79.18;8.70;;;;;;;5.31;100.00;98312.56;4961076;28;20105;-57
2023/01/10 08:46:18;;;;;;;49.22;5.28;;;;;;;5.33;100.00;98321.22;4960623;28;20042;-58
2023/01/10 08:48:44;;;;;;;78.30;6.95;;;;;;;5.27;100.00;98325.38;4961098;28;20077;-56
2023/01/10 08:51:10;;;;;;;71.93;8.02;;;;;;;5.34;100.00;98330.69;4959488;28;20804;-57
2023/01/10 08:53:35;;;;;;;59.88;7.13;;;;;;;5.30;100.00;98330.56;4960444;28;20085;-56
2023/01/10 08:56:01;;;;;;;61.20;6.72;;;;;;;5.29;100.00;98327.13;4959921;28;20053;-57
2023/01/10 08:58:26;;;;;;;66.18;6.75;;;;;;;5.34;100.00;98335.84;4960677;28;20027;-57
2023/01/10 09:00:52;;;;;;;67.28;8.00;;;;;;;5.38;100.00;98329.03;4959201;28;20788;-58
2023/01/10 09:03:18;;;;;;;49.75;5.70;;;;;;;5.40;100.00;98323.94;4960125;28;20043;-56
2023/01/10 09:05:43;;;;;;;53.42;6.78;;;;;;;5.42;100.00;98330.00;4959584;28;20066;-59
2023/01/10 09:08:09;;;;;;;55.95;5.38;;;;;;;5.74;100.00;98335.00;4960234;28;20033;-56
2023/01/10 09:10:34;;;;;;;54.67;7.32;;;;;;;5.55;100.00;98346.63;4959144;28;20050;-56
2023/01/10 09:13:00;;;;;;;64.50;7.45;;;;;;;5.59;100.00;98357.06;4960048;28;20584;-56
2023/01/10 09:15:31;;;;;;;61.67;7.50;;;;;;;5.56;100.00;98359.56;4959349;28;20146;-56
2023/01/10 09:18:03;;;;;;;50.40;5.67;;;;;;;5.56;100.00;98363.84;4960297;28;20073;-58
2023/01/10 09:20:29;;;;;;;59.70;7.93;;;;;;;5.58;100.00;98360.50;4959103;28;20057;-56
2023/01/10 09:22:56;;;;;;;48.70;7.35;;;;;;;5.54;100.00;98365.53;4960240;28;20019;-56
2023/01/10 09:25:22;;;;;;;69.85;7.35;;;;;;;5.63;100.00;98377.75;4959207;28;20014;-56
2023/01/10 09:27:55;;;;;;;51.67;6.97;;;;;;;5.59;100.00;98382.88;4960523;28;20065;-57
2023/01/10 09:30:21;;;;;;;73.18;7.43;;;;;;;5.54;100.00;98391.34;4958684;28;20465;-56
2023/01/10 09:32:52;;;;;;;54.15;6.25;;;;;;;5.47;100.00;98409.22;4959512;28;20617;-56
2023/01/10 09:35:18;;;;;;;70.03;7.00;;;;;;;5.55;100.00;98406.84;4958662;28;20018;-56
2023/01/10 09:37:44;;;;;;;62.13;7.85;;;;;;;5.52;100.00;98398.16;4959695;28;20707;-55
2023/01/10 09:40:14;;;;;;;66.22;8.35;;;;;;;5.58;100.00;98411.22;4958922;28;20037;-57
2023/01/10 09:43:10;;;;;;;70.65;7.88;;;;;;;5.66;100.00;98413.97;4958584;28;20034;-56
2023/01/10 09:46:04;;;;;;;77.07;8.25;;;;;;;5.60;100.00;98420.72;4959491;28;20112;-57
2023/01/10 09:48:57;;;;;;;67.55;7.57;;;;;;;5.63;100.00;98417.34;4958954;28;20042;-55
2023/01/10 09:51:37;;;;;;;59.25;8.10;;;;;;;5.59;100.00;98410.38;4957839;28;20426;-57
2023/01/10 09:54:13;;;;;;;64.80;7.13;;;;;;;5.50;100.00;98402.41;4959426;28;20429;-54
2023/01/10 09:56:39;;;;;;;65.57;6.68;;;;;;;5.68;100.00;98399.41;4958602;28;20043;-57
2023/01/10 09:59:05;;;;;;;58.30;7.85;;;;;;;5.75;100.00;98411.59;4958914;28;20114;-54
2023/01/10 10:01:37;;;;;;;51.85;6.47;;;;;;;5.69;100.00;98419.19;4957871;28;20098;-55
2023/01/10 10:04:10;;;;;;;66.35;7.60;;;;;;;5.65;100.00;98417.38;4959692;28;20054;-55
2023/01/10 10:06:36;;;;;;;46.75;5.15;;;;;;;5.76;100.00;98404.72;4950936;28;20046;-55
2023/01/10 10:09:02;;;;;;;51.88;6.85;;;;;;;5.62;100.00;98399.25;4959222;28;20034;-56
2023/01/10 10:11:27;;;;;;;47.95;6.60;;;;;;;5.77;100.00;98394.44;4958200;28;20039;-57
2023/01/10 10:14:17;;;;;;;64.95;7.95;;;;;;;5.90;100.00;98397.28;4959223;28;20026;-55
2023/01/10 10:17:04;;;;;;;54.10;7.75;;;;;;;6.03;100.00;98391.59;4958149;28;20074;-58
2023/01/10 10:19:48;;;;;;;59.78;8.00;;;;;;;5.96;100.00;98389.66;4959374;28;20031;-55
2023/01/10 10:22:46;;;;;;;63.22;7.13;;;;;;;5.99;100.00;98397.50;4958503;28;20058;-56
2023/01/10 10:25:41;;;;;;;64.40;7.93;;;;;;;6.13;100.00;98403.00;4958425;28;20042;-55
2023/01/10 10:28:36;;;;;;;63.97;9.02;;;;;;;6.42;100.00;98413.03;4958482;28;20054;-56
2023/01/10 10:31:17;;;;;;;93.38;8.57;;;;;;;6.33;100.00;98415.44;4957405;28;20071;-57
2023/01/10 10:34:00;;;;;;;59.65;8.13;;;;;;;6.23;100.00;98417.84;4959498;28;20018;-58
2023/01/10 10:36:37;;;;;;;57.83;8.00;;;;;;;6.21;100.00;98426.41;4958329;28;20038;-55
2023/01/10 10:39:03;;;;;;;54.63;8.80;;;;;;;6.18;100.00;98436.66;4958942;28;20033;-56
2023/01/10 10:41:39;;;;;;;60.05;8.63;;;;;;;6.17;100.00;98442.66;4957329;28;20093;-56
2023/01/10 10:44:39;;;;;;;59.08;8.10;;;;;;;6.21;100.00;98428.97;4959110;28;20105;-56
2023/01/10 10:47:14;;;;;;;63.63;6.10;;;;;;;5.94;100.00;98435.25;4958230;28;20039;-56
2023/01/10 10:49:49;;;;;;;71.50;7.15;;;;;;;5.90;100.00;98430.84;4961828;28;20818;-56
2023/01/10 10:52:34;;;;;;;79.97;9.13;;;;;;;5.98;100.00;98439.66;4961542;28;20050;-56
2023/01/10 10:55:03;;;;;;;56.70;7.28;;;;;;;6.12;100.00;98446.03;4962448;28;20101;-57
2023/01/10 10:57:31;;;;;;;72.82;8.18;;;;;;;5.99;100.00;98451.72;4962656;28;20460;-56
2023/01/10 10:59:58;;;;;;;64.43;7.30;;;;;;;5.95;100.00;98452.47;4961548;28;20555;-55
2023/01/10 11:02:30;;;;;;;63.80;7.13;;;;;;;5.84;100.00;98445.38;4961421;28;20042;-58
2023/01/10 11:05:02;;;;;;;52.13;6.87;;;;;;;5.97;100.00;98451.69;4962284;28;20133;-56
2023/01/10 11:07:31;;;;;;;;;;;;;;;6.07;100.00;98447.63;4962104;28;20063;-57
2023/01/10 11:12:46;;;;;;;58.78;7.38;;;;;;;6.11;100.00;98446.88;4961573;28;20279;-55
2023/01/10 11:15:42;;;;;;;58.42;5.53;;;;;;;6.10;100.00;98441.66;4961802;28;20030;-55
2023/01/10 11:18:15;;;;;;;55.28;6.40;;;;;;;6.16;100.00;98449.53;4962815;28;20042;-57
2023/01/10 11:20:58;;;;;;;;;;;;;;;6.31;100.00;98440.38;4961273;28;20524;-55
2023/01/10 11:23:39;;;;;;;63.72;6.07;;;;;;;6.33;100.00;98443.84;4962946;28;19918;-59
2023/01/10 11:26:33;;;;;;;50.58;6.43;;;;;;;6.40;100.00;98448.31;4961379;28;20050;-56
2023/01/10 11:29:41;;;;;;;50.20;6.15;;;;;;;6.50;100.00;98452.81;4961104;28;20105;-55
2023/01/10 11:32:14;;;;;;;53.03;6.50;;;;;;;6.44;100.00;98455.31;4920939;29;20043;-55
2023/01/10 11:34:41;;;;;;;53.63;6.15;;;;;;;6.46;100.00;98453.59;4955136;28;20043;-56
2023/01/10 11:37:17;;;;;;;59.55;6.22;;;;;;;6.66;100.00;98452.25;4961197;28;20035;-56
2023/01/10 11:39:43;;;;;;;79.43;7.90;;;;;;;6.61;100.00;98455.63;4961002;28;20030;-58
2023/01/10 11:42:38;;;;;;;63.55;6.03;;;;;;;7.21;100.00;98449.84;4960369;28;20034;-56
2023/01/10 11:45:33;;;;;;;73.15;6.90;;;;;;;7.76;100.00;98441.25;4951695;28;20046;-56